createdAt,value
2018-07-30T00:00:36.890Z,13.50
2018-07-30T00:03:04.799Z,13.10
2018-07-30T00:05:32.653Z,12.90
2018-07-30T00:08:00.554Z,12.80
2018-07-30T00:10:28.473Z,13.00
2018-07-30T00:12:56.366Z,13.23
2018-07-30T00:15:24.271Z,12.43
2018-07-30T00:17:52.109Z,13.73
2018-07-30T00:20:20.112Z,13.20
2018-07-30T00:22:48.015Z,13.10
2018-07-30T00:25:15.890Z,13.13
2018-07-30T00:27:43.809Z,13.20
2018-07-30T00:30:11.763Z,13.10
2018-07-30T00:32:39.619Z,13.23
2018-07-30T00:35:07.581Z,12.83
2018-07-30T00:37:35.449Z,13.30
2018-07-30T00:40:03.330Z,12.37
2018-07-30T00:42:31.178Z,14.07
2018-07-30T00:44:59.034Z,14.00
2018-07-30T00:47:26.919Z,14.03
2018-07-30T00:49:54.778Z,14.20
2018-07-30T00:52:23.057Z,14.10
2018-07-30T00:54:51.317Z,14.10
2018-07-30T00:57:19.188Z,14.10
2018-07-30T00:59:47.094Z,14.30
2018-07-30T01:02:15.008Z,13.90
2018-07-30T01:04:42.869Z,14.10
2018-07-30T01:07:10.766Z,14.40
2018-07-30T01:09:38.650Z,14.30
2018-07-30T01:12:06.571Z,12.93
2018-07-30T01:14:34.481Z,13.70
2018-07-30T01:17:03.286Z,14.43
2018-07-30T01:19:31.158Z,14.60
2018-07-30T01:21:59.053Z,14.30
2018-07-30T01:24:26.941Z,14.57
2018-07-30T01:26:54.841Z,14.47
2018-07-30T01:29:22.684Z,13.33
2018-07-30T01:31:50.537Z,14.30
2018-07-30T01:34:18.396Z,13.10
2018-07-30T01:36:46.320Z,15.07
2018-07-30T01:39:14.145Z,13.40
2018-07-30T01:41:42.037Z,13.70
2018-07-30T01:44:09.960Z,13.70
2018-07-30T01:46:37.827Z,13.40
2018-07-30T01:49:09.186Z,14.20
2018-07-30T01:51:37.087Z,13.63
2018-07-30T01:54:04.974Z,14.20
2018-07-30T01:56:32.846Z,14.30
2018-07-30T01:59:00.701Z,13.90
2018-07-30T02:01:28.541Z,14.30
2018-07-30T02:03:56.401Z,13.37
2018-07-30T02:06:24.311Z,14.27
2018-07-30T02:08:52.177Z,14.30
2018-07-30T02:11:20.161Z,15.03
2018-07-30T02:13:48.033Z,14.00
2018-07-30T02:16:15.940Z,14.33
2018-07-30T02:18:43.817Z,14.10
2018-07-30T02:21:11.730Z,14.70
2018-07-30T02:23:39.574Z,14.13
2018-07-30T02:26:07.467Z,13.87
2018-07-30T02:28:35.314Z,14.63
2018-07-30T02:31:03.184Z,14.90
2018-07-30T02:33:31.065Z,14.77
2018-07-30T02:35:58.965Z,14.70
2018-07-30T02:38:26.833Z,15.67
2018-07-30T02:41:00.519Z,15.90
2018-07-30T02:43:28.353Z,14.90
2018-07-30T02:45:56.233Z,14.60
2018-07-30T02:48:24.198Z,14.33
2018-07-30T02:50:55.657Z,13.30
2018-07-30T02:53:23.515Z,14.13
2018-07-30T02:55:51.415Z,14.13
2018-07-30T02:58:19.252Z,14.60
2018-07-30T03:00:47.181Z,14.30
2018-07-30T03:03:15.053Z,14.87
2018-07-30T03:05:43.083Z,15.13
2018-07-30T03:08:11.237Z,14.57
2018-07-30T03:10:39.194Z,14.63
2018-07-30T03:13:07.618Z,15.43
2018-07-30T03:15:35.486Z,15.97
2018-07-30T03:18:03.375Z,15.40
2018-07-30T03:20:31.282Z,15.87
2018-07-30T03:22:59.182Z,14.60
2018-07-30T03:25:27.113Z,15.47
2018-07-30T03:27:54.954Z,15.23
2018-07-30T03:30:22.831Z,15.37
2018-07-30T03:32:50.707Z,14.60
2018-07-30T03:35:18.708Z,15.37
2018-07-30T03:37:46.603Z,15.00
2018-07-30T03:40:14.515Z,14.47
2018-07-30T03:42:42.456Z,14.37
2018-07-30T03:45:10.748Z,13.60
2018-07-30T03:47:38.674Z,14.10
2018-07-30T03:50:07.059Z,14.03
2018-07-30T03:52:35.110Z,13.87
2018-07-30T03:55:03.072Z,14.30
2018-07-30T03:57:30.949Z,14.70
2018-07-30T03:59:58.834Z,14.33
2018-07-30T04:02:26.718Z,15.43
2018-07-30T04:04:54.574Z,14.93
2018-07-30T04:07:22.462Z,14.60
2018-07-30T04:09:50.386Z,13.60
2018-07-30T04:12:18.266Z,13.27
2018-07-30T04:14:46.176Z,14.40
2018-07-30T04:17:14.041Z,14.37
2018-07-30T04:19:42.025Z,14.90
2018-07-30T04:22:09.896Z,14.67
2018-07-30T04:24:37.856Z,14.90
2018-07-30T04:27:05.905Z,14.40
2018-07-30T04:29:33.897Z,14.50
2018-07-30T04:32:05.848Z,14.50
2018-07-30T04:34:34.222Z,14.37
2018-07-30T04:37:02.058Z,15.10
2018-07-30T04:39:29.881Z,13.40
2018-07-30T04:41:57.797Z,14.87
2018-07-30T04:44:25.722Z,14.10
2018-07-30T04:46:53.581Z,14.50
2018-07-30T04:49:21.601Z,13.73
2018-07-30T04:51:49.483Z,14.77
2018-07-30T04:54:20.917Z,14.13
2018-07-30T04:56:48.751Z,15.13
2018-07-30T04:59:17.127Z,13.60
2018-07-30T05:01:44.956Z,14.50
2018-07-30T05:04:12.796Z,13.87
2018-07-30T05:06:40.698Z,14.10
2018-07-30T05:09:11.805Z,13.90
2018-07-30T05:11:39.749Z,14.80
2018-07-30T05:14:07.715Z,13.30
2018-07-30T05:16:35.657Z,14.87
2018-07-30T05:19:03.501Z,14.83
2018-07-30T05:21:31.357Z,14.97
2018-07-30T05:23:59.242Z,15.00
2018-07-30T05:26:27.072Z,14.30
2018-07-30T05:28:54.972Z,14.03
2018-07-30T05:31:22.828Z,15.50
2018-07-30T05:33:50.779Z,14.43
2018-07-30T05:36:22.038Z,15.80
2018-07-30T05:38:49.851Z,14.10
2018-07-30T05:41:17.694Z,14.77
2018-07-30T05:43:45.677Z,15.10
2018-07-30T05:46:13.608Z,14.10
2018-07-30T05:48:41.441Z,14.50
2018-07-30T05:51:09.297Z,14.27
2018-07-30T05:53:37.139Z,14.90
2018-07-30T05:56:05.026Z,16.70
2018-07-30T05:58:32.909Z,16.27
2018-07-30T06:01:01.240Z,14.50
2018-07-30T06:03:29.132Z,14.60
2018-07-30T06:05:57.185Z,15.60
2018-07-30T06:08:25.069Z,14.57
2018-07-30T06:10:53.091Z,15.10
2018-07-30T06:13:20.995Z,15.63
2018-07-30T06:15:48.871Z,13.90
2018-07-30T06:18:16.818Z,15.00
2018-07-30T06:20:45.489Z,14.77
2018-07-30T06:23:13.337Z,14.50
2018-07-30T06:25:41.250Z,15.47
2018-07-30T06:28:09.060Z,14.47
2018-07-30T06:30:36.954Z,15.30
2018-07-30T06:33:04.813Z,14.37
2018-07-30T06:35:32.690Z,14.30
2018-07-30T06:38:00.576Z,14.60
2018-07-30T06:40:28.454Z,15.33
2018-07-30T06:42:56.340Z,14.20
2018-07-30T06:45:24.218Z,14.13
2018-07-30T06:47:52.117Z,13.40
2018-07-30T06:50:19.979Z,13.83
2018-07-30T06:52:47.883Z,13.80
2018-07-30T06:55:15.772Z,13.57
2018-07-30T06:57:43.591Z,13.63
2018-07-30T07:00:11.540Z,14.00
2018-07-30T07:02:39.779Z,13.57
2018-07-30T07:05:08.825Z,14.47
2018-07-30T07:07:36.759Z,13.17
2018-07-30T07:10:05.924Z,13.40
2018-07-30T07:12:33.816Z,13.07
2018-07-30T07:15:01.650Z,14.07
2018-07-30T07:17:29.520Z,14.17
2018-07-30T07:19:57.335Z,13.97
2018-07-30T07:22:25.199Z,13.80
2018-07-30T07:24:53.237Z,13.10
2018-07-30T07:27:21.069Z,13.93
2018-07-30T07:29:48.909Z,14.17
2018-07-30T07:32:16.782Z,13.77
2018-07-30T07:34:44.661Z,14.83
2018-07-30T07:37:12.494Z,14.10
2018-07-30T07:39:40.358Z,14.17
2018-07-30T07:42:08.238Z,14.87
2018-07-30T07:44:36.202Z,14.70
2018-07-30T07:47:04.344Z,14.60
2018-07-30T07:49:32.328Z,14.03
2018-07-30T07:52:00.221Z,14.17
2018-07-30T07:54:28.115Z,14.87
2018-07-30T07:56:56.164Z,13.63
2018-07-30T07:59:24.032Z,12.70
2018-07-30T08:01:51.935Z,14.40
2018-07-30T08:04:19.851Z,14.73
2018-07-30T08:06:47.736Z,14.30
2018-07-30T08:09:15.655Z,13.93
2018-07-30T08:11:43.546Z,13.93
2018-07-30T08:14:11.506Z,13.57
2018-07-30T08:16:39.386Z,13.40
2018-07-30T08:19:07.334Z,13.60
2018-07-30T08:21:35.198Z,13.17
2018-07-30T08:24:03.254Z,12.03
2018-07-30T08:26:31.182Z,11.80
2018-07-30T08:28:59.029Z,12.27
2018-07-30T08:31:28.851Z,11.23
2018-07-30T08:33:56.771Z,11.20
2018-07-30T08:36:24.594Z,11.73
2018-07-30T08:38:52.485Z,12.40
2018-07-30T08:41:20.320Z,11.50
2018-07-30T08:43:48.186Z,12.03
2018-07-30T08:46:16.061Z,12.43
2018-07-30T08:48:44.213Z,11.77
2018-07-30T08:51:12.109Z,12.03
2018-07-30T08:53:39.971Z,11.53
2018-07-30T08:56:07.846Z,11.67
2018-07-30T08:58:35.692Z,11.53
2018-07-30T09:01:03.529Z,11.90
2018-07-30T09:03:31.365Z,11.53
2018-07-30T09:05:59.212Z,11.40
2018-07-30T09:08:27.102Z,10.23
2018-07-30T09:10:55.034Z,10.03
2018-07-30T09:13:22.877Z,9.80
2018-07-30T09:15:50.810Z,8.83
2018-07-30T09:18:18.784Z,8.80
2018-07-30T09:20:47.468Z,9.20
2018-07-30T09:23:15.308Z,8.93
2018-07-30T09:25:43.142Z,9.00
2018-07-30T09:28:11.002Z,8.73
2018-07-30T09:30:38.795Z,8.40
2018-07-30T09:33:06.763Z,8.93
2018-07-30T09:35:34.592Z,8.80
2018-07-30T09:38:02.491Z,11.20
2018-07-30T09:40:30.502Z,9.03
2018-07-30T09:42:58.330Z,9.20
2018-07-30T09:45:26.230Z,8.17
2018-07-30T09:47:54.035Z,8.77
2018-07-30T09:50:21.885Z,8.80
2018-07-30T09:52:50.479Z,9.37
2018-07-30T09:55:18.338Z,8.83
2018-07-30T09:57:46.245Z,8.30
2018-07-30T10:00:14.550Z,8.63
2018-07-30T10:02:42.378Z,8.83
2018-07-30T10:05:10.164Z,8.67
2018-07-30T10:07:38.044Z,8.40
2018-07-30T10:10:05.875Z,8.40
2018-07-30T10:12:33.803Z,8.80
2018-07-30T10:15:01.715Z,8.57
2018-07-30T10:17:29.584Z,8.40
2018-07-30T10:19:57.420Z,8.40
2018-07-30T10:22:25.330Z,8.00
2018-07-30T10:24:53.210Z,8.60
2018-07-30T10:27:21.076Z,8.30
2018-07-30T10:29:48.918Z,8.10
2018-07-30T10:32:16.795Z,7.60
2018-07-30T10:34:44.666Z,8.60
2018-07-30T10:37:12.531Z,7.40
2018-07-30T10:39:40.421Z,7.47
2018-07-30T10:42:08.323Z,8.00
2018-07-30T10:44:36.180Z,8.60
2018-07-30T10:47:04.000Z,7.37
2018-07-30T10:49:31.849Z,7.27
2018-07-30T10:51:59.703Z,6.60
2018-07-30T10:57:02.387Z,7.20
2018-07-30T10:59:30.323Z,6.97
2018-07-30T11:01:58.205Z,7.00
2018-07-30T11:04:26.177Z,7.20
2018-07-30T11:06:54.049Z,7.63
2018-07-30T11:09:21.909Z,7.13
2018-07-30T11:11:49.791Z,6.60
2018-07-30T11:14:17.728Z,6.50
2018-07-30T11:16:45.614Z,6.80
2018-07-30T11:19:13.401Z,6.33
2018-07-30T11:21:41.427Z,6.73
2018-07-30T11:24:09.249Z,6.80
2018-07-30T11:26:37.258Z,6.47
2018-07-30T11:29:05.109Z,6.43
2018-07-30T11:31:33.101Z,6.87
2018-07-30T11:34:00.946Z,7.03
2018-07-30T11:36:28.941Z,5.93
2018-07-30T11:39:00.284Z,6.93
2018-07-30T11:41:28.170Z,6.80
2018-07-30T11:43:55.993Z,6.27
2018-07-30T11:46:23.916Z,6.60
2018-07-30T11:48:51.983Z,6.60
2018-07-30T11:51:19.814Z,6.60
2018-07-30T11:53:47.744Z,6.47
2018-07-30T11:56:15.684Z,6.67
2018-07-30T11:58:43.526Z,6.20
2018-07-30T12:01:11.499Z,6.93
2018-07-30T12:03:39.337Z,5.80
2018-07-30T12:06:07.169Z,6.43
2018-07-30T12:08:35.074Z,6.13
2018-07-30T12:11:02.901Z,6.07
2018-07-30T12:13:30.878Z,5.97
2018-07-30T12:15:58.644Z,5.80
2018-07-30T12:18:26.526Z,5.57
2018-07-30T12:20:54.499Z,6.10
2018-07-30T12:23:22.280Z,6.00
2018-07-30T12:25:50.145Z,5.97
2018-07-30T12:28:17.951Z,5.60
2018-07-30T12:30:45.765Z,5.50
2018-07-30T12:33:13.631Z,5.60
2018-07-30T12:35:41.495Z,5.70
2018-07-30T12:38:09.312Z,5.77
2018-07-30T12:40:37.126Z,5.67
2018-07-30T12:43:05.814Z,5.70
2018-07-30T12:45:39.124Z,5.03
2018-07-30T12:48:07.618Z,5.40
2018-07-30T12:50:36.246Z,5.80
2018-07-30T12:53:04.197Z,5.42
2018-07-30T12:55:31.973Z,5.60
2018-07-30T12:57:59.841Z,5.47
2018-07-30T13:00:28.019Z,5.20
2018-07-30T13:02:56.046Z,5.58
2018-07-30T13:05:23.801Z,4.95
2018-07-30T13:07:51.780Z,5.20
2018-07-30T13:10:19.640Z,5.08
2018-07-30T13:12:47.623Z,4.97
2018-07-30T13:15:15.534Z,4.90
2018-07-30T13:17:43.521Z,4.90
2018-07-30T13:20:11.363Z,5.37
2018-07-30T13:22:39.210Z,4.65
2018-07-30T13:25:07.082Z,4.58
2018-07-30T13:27:34.954Z,5.10
2018-07-30T13:30:02.841Z,4.90
2018-07-30T13:32:30.698Z,4.87
2018-07-30T13:34:58.477Z,5.17
2018-07-30T13:37:26.322Z,4.78
2018-07-30T13:39:54.310Z,5.33
2018-07-30T13:42:22.150Z,5.28
2018-07-30T13:44:50.076Z,5.22
2018-07-30T13:47:17.888Z,5.20
2018-07-30T13:49:45.751Z,4.90
2018-07-30T13:52:13.797Z,5.00
2018-07-30T13:54:41.647Z,4.70
2018-07-30T13:57:09.460Z,4.72
2018-07-30T13:59:37.291Z,4.55
2018-07-30T14:02:05.159Z,4.47
2018-07-30T14:04:32.979Z,4.40
2018-07-30T14:07:00.834Z,4.50
2018-07-30T14:09:28.692Z,4.72
2018-07-30T14:11:56.650Z,4.00
2018-07-30T17:47:44.153Z,5.00
2018-07-30T18:04:54.462Z,6.80
2018-07-30T18:39:14.252Z,5.20
2018-07-30T18:46:37.287Z,4.90
2018-07-30T18:49:05.299Z,5.10
2018-07-30T18:51:33.253Z,5.15
2018-07-30T18:54:01.115Z,5.47
2018-07-30T18:56:28.979Z,5.80
2018-07-30T18:58:56.849Z,6.20
2018-07-30T19:01:24.816Z,5.90
2018-07-30T19:03:52.650Z,6.90
2018-07-30T19:06:20.568Z,6.37
2018-07-30T19:08:48.410Z,5.47
2018-07-30T19:11:16.237Z,5.20
2018-07-30T19:13:44.160Z,5.30
2018-07-30T19:16:12.075Z,5.60
2018-07-30T19:18:39.945Z,5.83
2018-07-30T19:21:07.831Z,5.67
2018-07-30T19:23:35.705Z,6.07
2018-07-30T19:26:03.622Z,6.43
2018-07-30T19:28:32.005Z,6.50
2018-07-30T19:31:00.067Z,5.73
2018-07-30T19:33:27.977Z,5.93
2018-07-30T19:35:55.845Z,5.90
2018-07-30T19:38:23.738Z,6.00
2018-07-30T19:40:51.634Z,6.70
2018-07-30T19:43:19.539Z,6.33
2018-07-30T19:45:47.394Z,6.00
2018-07-30T19:48:15.234Z,6.27
2018-07-30T19:50:43.167Z,6.17
2018-07-30T19:53:10.965Z,6.40
2018-07-30T19:55:39.025Z,6.50
2018-07-30T19:58:07.490Z,6.70
2018-07-30T20:00:35.191Z,6.53
2018-07-30T20:03:03.059Z,7.03
2018-07-30T20:05:30.986Z,6.80
2018-07-30T20:07:58.882Z,6.80
2018-07-30T20:10:26.765Z,6.20
2018-07-30T20:12:54.615Z,6.90
2018-07-30T20:15:23.601Z,6.63
2018-07-30T20:17:52.009Z,5.90
2018-07-30T20:20:19.871Z,6.33
2018-07-30T20:25:15.017Z,6.80
2018-07-30T20:27:43.508Z,6.40
2018-07-30T20:30:11.329Z,6.90
2018-07-30T20:32:39.258Z,6.40
2018-07-30T20:37:34.566Z,6.83
2018-07-30T20:40:04.794Z,6.20
2018-07-30T20:42:32.609Z,7.00
2018-07-30T20:45:00.542Z,6.70
2018-07-30T20:47:28.366Z,6.40
2018-07-30T20:49:57.213Z,7.10
2018-07-30T20:54:52.338Z,6.30
2018-07-30T20:57:20.253Z,6.70
2018-07-30T20:59:48.174Z,7.20
2018-07-30T21:02:16.067Z,6.63
2018-07-30T21:04:43.971Z,6.70
2018-07-30T21:07:11.866Z,6.43
2018-07-30T21:09:39.680Z,7.37
2018-07-30T21:12:07.594Z,8.50
2018-07-30T21:14:35.531Z,7.70
2018-07-30T21:17:06.427Z,7.30
2018-07-30T21:19:34.340Z,6.90
2018-07-30T21:22:02.236Z,6.77
2018-07-30T21:24:30.082Z,7.10
2018-07-30T21:26:58.007Z,7.00
2018-07-30T21:29:25.934Z,7.00
2018-07-30T21:31:53.816Z,7.30
2018-07-30T21:34:21.651Z,7.10
2018-07-30T21:36:49.504Z,7.53
2018-07-30T21:39:17.419Z,6.93
2018-07-30T21:41:45.335Z,7.43
2018-07-30T21:44:13.177Z,7.23
2018-07-30T21:46:42.728Z,7.30
2018-07-30T21:49:10.658Z,7.20
2018-07-30T21:51:38.581Z,6.90
2018-07-30T21:54:06.503Z,7.23
2018-07-30T21:56:34.330Z,7.60
2018-07-30T21:59:02.166Z,7.53
2018-07-30T22:01:30.010Z,7.37
2018-07-30T22:04:03.579Z,7.77
2018-07-30T22:06:31.417Z,7.70
2018-07-30T22:08:59.737Z,7.50
2018-07-30T22:11:27.629Z,7.70
2018-07-30T22:13:55.524Z,7.50
2018-07-30T22:16:23.409Z,7.80
2018-07-30T22:18:54.592Z,8.40
2018-07-30T22:21:22.513Z,8.10
2018-07-30T22:23:50.345Z,7.90
2018-07-30T22:26:18.241Z,7.60
2018-07-30T22:28:49.628Z,7.70
2018-07-30T22:31:20.820Z,7.87
2018-07-30T22:33:48.670Z,7.37
2018-07-30T22:36:16.487Z,7.53
2018-07-30T22:38:47.382Z,8.13
2018-07-30T22:41:21.528Z,7.10
2018-07-30T22:43:49.678Z,7.80
2018-07-30T22:46:17.581Z,8.00
2018-07-30T22:48:45.446Z,7.90
2018-07-30T22:51:16.950Z,8.40
2018-07-30T22:53:44.835Z,7.77
2018-07-30T22:56:12.734Z,7.87
2018-07-30T22:58:40.546Z,8.30
2018-07-30T23:01:08.373Z,7.70
2018-07-30T23:03:36.241Z,8.60
2018-07-30T23:06:04.102Z,7.80
2018-07-30T23:08:31.921Z,7.90
2018-07-30T23:10:59.814Z,8.40
2018-07-30T23:13:27.647Z,7.80
2018-07-30T23:15:55.627Z,8.30
2018-07-30T23:18:23.543Z,8.07
2018-07-30T23:20:51.372Z,8.20
2018-07-30T23:23:19.218Z,8.63
2018-07-30T23:25:47.114Z,8.70
2018-07-30T23:28:14.985Z,8.23
2018-07-30T23:30:42.842Z,8.93
2018-07-30T23:33:12.669Z,8.37
2018-07-30T23:35:40.620Z,8.40
2018-07-30T23:38:08.474Z,7.70
2018-07-30T23:40:38.301Z,8.43
2018-07-30T23:43:09.913Z,8.10
2018-07-30T23:45:37.802Z,8.30
2018-07-30T23:48:05.737Z,8.40
2018-07-30T23:50:36.656Z,8.37
2018-07-30T23:53:04.654Z,8.90
2018-07-30T23:55:39.777Z,7.80
2018-07-30T23:58:07.729Z,8.70
